Time;durP1;ratioP1;P1;durP2;ratioP2;P2;SDS_P1;SDS_P2;PMS_P1;PMS_P2;Temp;Humidity;BMP_temperature;BMP_pressure;BME280_temperature;BME280_humidity;BME280_pressure;Samples;Min_cycle;Max_cycle;Signal;HPM_P1;HPM_P2
2021/06/23 00:01:34;;;;;;;38.70;20.20;;;;;;;;;;5014312;28;20453;-61
2021/06/23 00:04:00;;;;;;;33.65;19.17;;;;;;;;;;5013326;28;20034;-61
2021/06/23 00:06:26;;;;;;;36.67;20.25;;;;;;;;;;5014849;28;20060;-61
2021/06/23 00:08:52;;;;;;;33.28;21.27;;;;;;;;;;5016110;28;20030;-61
2021/06/23 00:11:19;;;;;;;35.85;19.45;;;;;;;;;;5016268;28;20112;-61
2021/06/23 00:13:46;;;;;;;37.67;20.85;;;;;;;;;;5013331;28;20050;-61
2021/06/23 00:16:13;;;;;;;37.70;19.15;;;;;;;;;;5013747;28;20499;-61
2021/06/23 00:18:39;;;;;;;34.97;18.35;;;23.70;99.90;;;;;;5013768;28;20036;-61
2021/06/23 00:21:04;;;;;;;33.55;18.42;;;23.60;99.90;;;;;;5013356;28;20021;-61
2021/06/23 00:23:30;;;;;;;35.88;17.50;;;23.60;99.90;;;;;;5017977;28;20032;-62
2021/06/23 00:25:57;;;;;;;30.40;16.85;;;;;;;;;;5014869;28;20029;-61
2021/06/23 00:28:23;;;;;;;36.35;17.20;;;23.60;99.90;;;;;;5012671;28;20105;-61
2021/06/23 00:30:49;;;;;;;36.53;18.17;;;23.50;99.90;;;;;;5015751;28;20037;-61
2021/06/23 00:33:21;;;;;;;34.72;17.73;;;23.50;99.90;;;;;;5013709;28;20092;-62
2021/06/23 00:35:47;;;;;;;34.58;18.50;;;23.50;99.90;;;;;;5006530;28;20092;-61
2021/06/23 00:38:13;;;;;;;34.60;17.90;;;23.60;99.90;;;;;;5009658;28;20080;-62
2021/06/23 00:40:42;;;;;;;30.25;18.35;;;23.50;99.90;;;;;;5052145;28;20507;-61
2021/06/23 00:43:08;;;;;;;35.35;18.80;;;23.60;99.90;;;;;;5056999;28;20028;-61
2021/06/23 00:45:34;;;;;;;44.42;26.45;;;23.50;99.90;;;;;;5017668;28;20033;-61
2021/06/23 00:48:06;;;;;;;49.10;28.63;;;23.50;99.90;;;;;;5056375;28;20032;-62
2021/06/23 00:50:32;;;;;;;41.00;24.58;;;23.50;99.90;;;;;;5057518;28;20115;-62
2021/06/23 00:52:58;;;;;;;37.90;20.08;;;23.50;99.90;;;;;;5037229;28;20194;-61
2021/06/23 00:55:24;;;;;;;38.83;20.15;;;23.50;99.90;;;;;;5019378;28;20033;-61
2021/06/23 00:57:52;;;;;;;37.40;21.90;;;23.40;99.90;;;;;;5054434;28;20388;-61
2021/06/23 01:00:23;;;;;;;67.30;45.92;;;23.40;99.90;;;;;;5054928;28;20032;-61
2021/06/23 01:02:49;;;;;;;84.03;49.08;;;23.40;99.90;;;;;;5033666;28;20043;-61
2021/06/23 01:05:16;;;;;;;76.97;53.00;;;23.40;99.90;;;;;;5056863;28;20021;-61
2021/06/23 01:07:43;;;;;;;71.45;50.50;;;23.50;99.90;;;;;;5051844;28;20087;-62
2021/06/23 01:10:10;;;;;;;65.60;42.70;;;23.50;99.90;;;;;;5058666;28;20080;-61
2021/06/23 01:12:45;;;;;;;49.55;30.55;;;23.50;99.90;;;;;;5057835;28;20083;-61
2021/06/23 01:15:14;;;;;;;50.55;27.08;;;23.60;99.90;;;;;;5057145;28;20029;-61
2021/06/23 01:17:40;;;;;;;50.88;25.05;;;23.50;99.90;;;;;;5055963;28;20036;-61
2021/06/23 01:20:13;;;;;;;42.60;23.63;;;23.40;99.90;;;;;;5059299;28;20025;-61
2021/06/23 01:22:43;;;;;;;44.50;21.40;;;23.40;99.90;;;;;;5058335;28;20120;-61
2021/06/23 01:25:12;;;;;;;42.70;22.58;;;23.40;99.90;;;;;;5039721;28;20052;-61
2021/06/23 01:27:39;;;;;;;38.85;19.60;;;23.30;99.90;;;;;;5058338;28;20090;-61
2021/06/23 01:30:08;;;;;;;52.75;22.77;;;23.30;99.90;;;;;;5041706;28;20114;-61
2021/06/23 01:32:34;;;;;;;39.17;20.05;;;;;;;;;;5008619;28;20037;-61
2021/06/23 01:35:00;;;;;;;39.50;20.52;;;23.00;99.90;;;;;;5060363;28;20546;-62
2021/06/23 01:37:26;;;;;;;36.80;19.08;;;23.00;99.90;;;;;;5037279;28;20029;-61
2021/06/23 01:39:52;;;;;;;36.05;19.45;;;23.00;99.90;;;;;;5057929;28;20136;-63
2021/06/23 01:42:18;;;;;;;35.00;18.25;;;23.00;99.90;;;;;;5055519;28;20364;-61
2021/06/23 01:44:44;;;;;;;35.25;17.83;;;23.00;99.90;;;;;;5060241;28;20028;-61
2021/06/23 01:47:09;;;;;;;39.22;16.55;;;23.00;99.90;;;;;;5058401;28;20039;-61
2021/06/23 01:49:35;;;;;;;39.85;18.65;;;23.10;99.90;;;;;;5058955;28;20041;-61
2021/06/23 01:52:01;;;;;;;32.13;18.38;;;;;;;;;;5059036;28;20028;-61
2021/06/23 01:54:27;;;;;;;37.47;18.52;;;22.90;99.90;;;;;;5060205;28;20090;-61
2021/06/23 01:56:53;;;;;;;37.53;19.35;;;22.90;99.90;;;;;;5037181;28;20044;-62
2021/06/23 01:59:18;;;;;;;36.40;18.75;;;22.80;99.90;;;;;;5057707;28;20035;-61
2021/06/23 02:02:06;;;;;;;32.65;18.55;;;22.80;99.90;;;;;;5062983;28;20051;-61
2021/06/23 02:04:34;;;;;;;32.92;18.88;;;22.80;99.90;;;;;;5055968;28;20502;-61
2021/06/23 02:07:03;;;;;;;40.90;19.23;;;22.90;99.90;;;;;;5057668;28;20028;-61
2021/06/23 02:10:00;;;;;;;32.53;17.27;;;22.80;99.90;;;;;;5061008;28;20037;-62
2021/06/23 02:12:25;;;;;;;34.75;17.55;;;22.90;99.90;;;;;;5056092;28;20033;-61
2021/06/23 02:14:53;;;;;;;41.45;18.05;;;22.90;99.90;;;;;;5054617;28;20155;-62
2021/06/23 02:17:25;;;;;;;33.72;17.45;;;22.90;99.90;;;;;;5058843;28;20033;-61
2021/06/23 02:19:51;;;;;;;;;;;22.90;99.90;;;;;;5025778;28;20128;-61
2021/06/23 02:22:30;;;;;;;35.95;17.85;;;22.90;99.90;;;;;;5058192;28;19912;-62
2021/06/23 02:25:08;;;;;;;36.35;16.30;;;22.80;99.90;;;;;;5060050;28;20021;-61
2021/06/23 02:27:34;;;;;;;34.47;18.00;;;22.80;99.90;;;;;;4986200;28;20090;-61
2021/06/23 02:30:00;;;;;;;40.28;17.55;;;22.80;99.90;;;;;;5056498;28;20131;-61
2021/06/23 02:32:28;;;;;;;31.45;17.05;;;22.70;99.90;;;;;;5004958;28;20044;-61
2021/06/23 02:35:01;;;;;;;41.42;17.23;;;22.70;99.90;;;;;;5041974;28;20399;-61
2021/06/23 02:37:27;;;;;;;33.60;15.45;;;22.80;99.90;;;;;;5059921;28;20119;-61
2021/06/23 02:39:54;;;;;;;38.20;15.02;;;22.80;99.90;;;;;;5020918;28;20136;-62
2021/06/23 02:42:20;;;;;;;39.20;14.93;;;22.90;99.90;;;;;;5054857;28;20036;-61
2021/06/23 02:44:46;;;;;;;41.88;14.70;;;22.90;99.90;;;;;;5058740;28;20021;-63
2021/06/23 02:47:17;;;;;;;38.30;16.52;;;22.90;99.90;;;;;;5019918;28;20387;-61
2021/06/23 02:49:44;;;;;;;34.92;15.82;;;22.90;99.90;;;;;;5057500;28;20044;-62
2021/06/23 02:52:11;;;;;;;35.65;13.75;;;23.00;99.90;;;;;;5055051;28;20047;-62
2021/06/23 02:54:37;;;;;;;37.67;14.38;;;23.00;99.90;;;;;;5056932;28;20103;-61
2021/06/23 02:57:03;;;;;;;38.28;14.25;;;23.00;99.90;;;;;;5054297;28;20055;-61
2021/06/23 02:59:30;;;;;;;35.83;12.95;;;23.10;99.90;;;;;;5036624;28;20045;-61
2021/06/23 03:01:56;;;;;;;30.00;11.65;;;23.20;99.90;;;;;;5058256;28;20078;-61
2021/06/23 03:04:22;;;;;;;43.33;13.73;;;23.10;99.90;;;;;;5056484;28;20541;-62
2021/06/23 03:06:48;;;;;;;28.25;13.02;;;23.30;99.90;;;;;;5056522;28;20037;-61
2021/06/23 03:09:14;;;;;;;31.05;12.85;;;23.20;99.90;;;;;;5056372;28;20037;-62
2021/06/23 03:11:41;;;;;;;33.95;12.27;;;23.10;99.90;;;;;;5054971;28;20033;-62
2021/06/23 03:14:07;;;;;;;49.50;13.88;;;23.10;99.90;;;;;;5053813;28;20037;-61
2021/06/23 03:16:34;;;;;;;37.35;14.63;;;23.10;99.90;;;;;;5057071;28;20032;-61
2021/06/23 03:19:00;;;;;;;40.53;13.57;;;23.10;99.90;;;;;;5059550;28;20044;-61
2021/06/23 03:21:26;;;;;;;36.60;14.40;;;23.10;99.90;;;;;;5055338;28;20029;-62
2021/06/23 03:23:52;;;;;;;43.20;13.75;;;23.10;99.90;;;;;;5021021;28;20472;-61
2021/06/23 03:26:19;;;;;;;33.60;12.32;;;23.10;99.90;;;;;;5054454;28;20492;-61
2021/06/23 03:28:46;;;;;;;39.67;12.82;;;23.10;99.90;;;;;;5014452;28;20033;-63
2021/06/23 03:31:12;;;;;;;33.40;13.30;;;23.10;99.90;;;;;;5033783;28;20041;-61
2021/06/23 03:33:40;;;;;;;35.92;11.90;;;23.20;99.90;;;;;;5035993;28;20104;-62
2021/06/23 03:36:06;;;;;;;32.63;11.73;;;23.40;99.90;;;;;;5032519;28;20136;-61
2021/06/23 03:38:33;;;;;;;33.40;11.18;;;;;;;;;;5031696;28;20061;-62
2021/06/23 03:40:59;;;;;;;34.30;11.07;;;23.60;99.90;;;;;;5010785;28;20042;-62
2021/06/23 03:43:27;;;;;;;37.55;11.65;;;23.60;99.90;;;;;;5011410;28;20168;-62
2021/06/23 03:45:53;;;;;;;29.70;11.15;;;;;;;;;;4962003;28;20528;-62
2021/06/23 03:48:19;;;;;;;31.98;10.60;;;23.90;99.90;;;;;;4965925;28;20038;-62
2021/06/23 03:50:48;;;;;;;29.55;9.93;;;;;;;;;;5007265;28;20042;-62
2021/06/23 03:53:15;;;;;;;33.50;10.50;;;24.10;99.90;;;;;;5012567;28;20038;-64
2021/06/23 03:55:41;;;;;;;37.47;10.50;;;;;;;;;;4990842;28;20141;-62
2021/06/23 03:58:07;;;;;;;40.70;12.43;;;;;;;;;;5019110;28;20032;-62
2021/06/23 05:07:53;;;;;;;38.50;10.30;;;26.20;99.90;;;;;;5081603;27;20430;-61
2021/06/23 05:10:19;;;;;;;30.23;9.10;;;26.40;99.90;;;;;;5076019;28;20553;-65
2021/06/23 05:12:45;;;;;;;30.80;8.77;;;26.50;99.90;;;;;;5080368;28;20025;-63
2021/06/23 05:15:12;;;;;;;31.70;8.38;;;;;;;;;;5076348;28;20086;-64
2021/06/23 05:17:37;;;;;;;39.72;8.60;;;26.70;99.90;;;;;;5073453;28;20032;-58
2021/06/23 05:20:04;;;;;;;34.83;9.40;;;26.70;99.90;;;;;;5084502;28;20071;-62
2021/06/23 05:22:30;;;;;;;30.92;7.50;;;;;;;;;;5074964;28;20546;-63
2021/06/23 05:24:58;;;;;;;27.88;9.10;;;27.00;99.90;;;;;;5095134;28;20040;-64
2021/06/23 05:27:24;;;;;;;23.92;7.85;;;27.20;99.90;;;;;;5079050;28;20449;-61
2021/06/23 05:29:49;;;;;;;31.63;7.43;;;27.00;99.90;;;;;;5076638;28;20104;-58
2021/06/23 05:32:15;;;;;;;35.65;9.40;;;27.10;99.90;;;;;;5076075;28;20090;-61
2021/06/23 05:34:41;;;;;;;33.55;8.98;;;27.10;99.90;;;;;;5076252;28;20051;-60
2021/06/23 05:37:07;;;;;;;35.38;8.38;;;;;;;;;;5078367;28;20056;-64
2021/06/23 05:39:33;;;;;;;44.83;9.25;;;27.20;99.90;;;;;;5078040;28;20032;-62
2021/06/23 05:41:59;;;;;;;31.67;9.45;;;27.30;99.90;;;;;;5088352;28;20035;-62
2021/06/23 05:44:25;;;;;;;38.20;10.20;;;;;;;;;;5076967;28;20475;-62
2021/06/23 05:46:51;;;;;;;29.65;7.40;;;27.60;99.90;;;;;;5084589;28;20036;-61
2021/06/23 05:49:17;;;;;;;25.48;7.05;;;27.70;99.90;;;;;;5082634;28;20028;-66
2021/06/23 05:51:42;;;;;;;32.08;7.35;;;27.60;99.90;;;;;;5082197;28;20032;-63
2021/06/23 05:54:08;;;;;;;28.20;7.72;;;27.60;99.90;;;;;;5080372;28;20021;-63
2021/06/23 05:56:34;;;;;;;34.80;8.23;;;27.70;99.90;;;;;;5080444;28;20459;-63
2021/06/23 05:59:00;;;;;;;29.65;8.15;;;27.80;99.90;;;;;;5078912;28;20097;-63
2021/06/23 06:01:26;;;;;;;37.08;8.27;;;27.90;99.90;;;;;;5089469;28;20060;-64
2021/06/23 06:03:52;;;;;;;31.15;7.32;;;27.90;99.90;;;;;;5073255;28;20050;-64
2021/06/23 06:06:17;;;;;;;31.92;8.32;;;28.10;99.90;;;;;;5093919;28;20048;-61
2021/06/23 06:08:43;;;;;;;25.48;7.63;;;28.10;99.90;;;;;;5038290;28;20102;-63
2021/06/23 06:11:09;;;;;;;27.55;8.13;;;28.20;99.90;;;;;;5066852;28;20031;-63
2021/06/23 06:13:34;;;;;;;31.55;8.82;;;28.30;99.90;;;;;;5066127;28;20047;-60
2021/06/23 06:16:00;;;;;;;28.20;7.78;;;28.40;99.90;;;;;;5059821;28;20075;-59
2021/06/23 06:18:26;;;;;;;39.67;8.50;;;28.40;99.90;;;;;;5066320;28;20348;-60
2021/06/23 06:20:57;;;;;;;24.60;7.10;;;28.50;99.90;;;;;;5060207;28;20033;-60
2021/06/23 06:23:24;;;;;;;;;;;28.50;99.90;;;;;;5070136;28;20111;-59
2021/06/23 06:25:51;;;;;;;32.10;7.25;;;28.60;99.90;;;;;;5057740;28;19940;-60
2021/06/23 06:28:17;;;;;;;28.55;7.40;;;28.70;99.90;;;;;;5061604;28;20037;-60
2021/06/23 06:30:43;;;;;;;28.65;7.60;;;28.80;99.90;;;;;;5077416;28;20114;-59
2021/06/23 06:33:09;;;;;;;23.73;7.25;;;28.80;99.90;;;;;;5077273;28;20423;-59
2021/06/23 06:35:35;;;;;;;28.38;7.78;;;29.00;99.90;;;;;;5075423;28;20040;-60
2021/06/23 06:38:01;;;;;;;33.65;8.63;;;29.10;99.90;;;;;;5067767;28;20039;-60
2021/06/23 06:40:27;;;;;;;27.25;7.63;;;29.20;99.90;;;;;;5080540;28;20036;-60
2021/06/23 06:42:53;;;;;;;27.40;7.18;;;29.20;99.90;;;;;;5075824;28;20047;-58
2021/06/23 06:45:19;;;;;;;24.75;6.55;;;29.20;99.90;;;;;;5080101;28;20098;-58
2021/06/23 06:47:46;;;;;;;27.85;8.95;;;29.30;99.90;;;;;;5059016;28;20378;-59
2021/06/23 06:50:12;;;;;;;27.17;7.55;;;29.40;99.90;;;;;;5060420;28;20479;-58
2021/06/23 06:52:38;;;;;;;18.60;6.00;;;29.40;99.90;;;;;;5063958;28;20099;-60
2021/06/23 06:55:05;;;;;;;25.02;7.63;;;29.40;99.90;;;;;;5066107;28;20062;-59
2021/06/23 06:57:32;;;;;;;30.40;6.68;;;29.50;99.90;;;;;;5065062;28;20105;-59
2021/06/23 06:59:57;;;;;;;30.23;8.77;;;29.50;99.90;;;;;;5067339;28;20036;-59
2021/06/23 07:02:23;;;;;;;23.92;6.47;;;29.70;99.90;;;;;;5035154;28;20525;-59
2021/06/23 07:04:49;;;;;;;33.72;8.20;;;29.70;99.90;;;;;;5060606;28;20028;-60
2021/06/23 07:07:15;;;;;;;24.17;7.72;;;29.90;99.90;;;;;;5068262;28;20045;-60
2021/06/23 07:09:40;;;;;;;23.08;6.65;;;30.00;99.90;;;;;;5061024;28;20483;-59
2021/06/23 07:12:07;;;;;;;19.98;6.20;;;30.10;99.90;;;;;;5082034;28;20819;-59
2021/06/23 07:14:33;;;;;;;35.72;7.43;;;30.10;99.90;;;;;;5049683;28;20040;-59
2021/06/23 07:16:59;;;;;;;19.50;6.43;;;30.40;99.90;;;;;;5068006;28;20493;-59
2021/06/23 07:19:25;;;;;;;25.58;6.68;;;30.50;99.90;;;;;;5094784;28;20040;-59
2021/06/23 07:21:51;;;;;;;24.38;5.45;;;30.50;99.90;;;;;;5061361;28;20030;-59
2021/06/23 07:24:18;;;;;;;31.65;6.85;;;30.70;99.90;;;;;;5060110;28;20422;-60
2021/06/23 07:26:47;;;;;;;19.08;4.90;;;30.80;99.90;;;;;;5067178;28;20090;-60
2021/06/23 07:29:13;;;;;;;22.40;5.53;;;30.70;99.90;;;;;;5078665;28;20120;-60
2021/06/23 07:31:45;;;;;;;24.50;4.95;;;30.90;99.90;;;;;;5081889;28;20046;-59
2021/06/23 07:36:44;;;;;;;21.00;4.53;;;31.00;99.90;;;;;;5059364;28;20108;-58
2021/06/23 07:39:13;;;;;;;20.02;5.82;;;31.10;99.90;;;;;;5062044;28;20025;-59
2021/06/23 07:41:41;;;;;;;14.50;5.22;;;31.30;99.90;;;;;;5062729;28;20447;-58
2021/06/23 07:44:08;;;;;;;21.05;4.60;;;31.40;99.90;;;;;;5061591;28;20108;-59
2021/06/23 07:46:38;;;;;;;18.23;5.10;;;31.60;99.90;;;;;;5063045;28;20029;-59
2021/06/23 07:49:07;;;;;;;19.58;5.05;;;31.80;99.90;;;;;;5067594;28;20040;-59
2021/06/23 07:52:22;;;;;;;20.20;5.25;;;31.60;99.50;;;;;;5061833;28;20041;-59
2021/06/23 08:02:41;;;;;;;18.77;4.97;;;32.10;98.30;;;;;;5074012;28;20135;-59
2021/06/23 08:10:30;;;;;;;19.65;5.32;;;32.50;96.70;;;;;;5074350;28;20524;-59
2021/06/23 08:12:58;;;;;;;16.40;5.20;;;32.60;96.00;;;;;;5073956;28;20039;-59
2021/06/23 08:15:26;;;;;;;25.30;5.30;;;32.50;95.20;;;;;;5070809;28;20044;-60
2021/06/23 08:17:52;;;;;;;20.15;5.78;;;32.80;94.60;;;;;;5073791;28;20067;-59
2021/06/23 08:20:18;;;;;;;17.17;4.38;;;32.60;94.60;;;;;;5073730;28;20475;-59
2021/06/23 08:22:44;;;;;;;22.77;5.45;;;32.80;93.20;;;;;;5073958;28;20028;-60
2021/06/23 08:25:11;;;;;;;14.35;5.00;;;32.90;93.40;;;;;;5074118;28;20379;-59
2021/06/23 08:27:39;;;;;;;20.67;4.60;;;33.20;92.10;;;;;;5055123;28;20037;-59
2021/06/23 08:30:06;;;;;;;16.33;3.90;;;33.10;91.70;;;;;;5074075;28;20039;-59
2021/06/23 08:32:33;;;;;;;20.67;4.25;;;33.20;91.30;;;;;;5054938;28;20070;-59
2021/06/23 08:34:59;;;;;;;22.17;5.10;;;33.50;91.40;;;;;;5073838;28;20032;-59
2021/06/23 08:37:25;;;;;;;23.38;11.23;;;33.50;91.40;;;;;;5073721;28;20411;-59
2021/06/23 08:39:50;;;;;;;22.27;4.05;;;33.50;90.70;;;;;;5088860;28;20543;-59
2021/06/23 08:42:19;;;;;;;17.05;4.75;;;33.50;90.60;;;;;;5072503;28;20037;-59
2021/06/23 08:44:46;;;;;;;15.98;3.92;;;33.20;91.60;;;;;;5073842;28;20025;-59
2021/06/23 08:47:12;;;;;;;16.15;3.75;;;33.70;91.30;;;;;;5088927;28;20364;-59
2021/06/23 08:49:38;;;;;;;11.75;4.40;;;34.90;90.50;;;;;;5073561;28;20554;-60
2021/06/23 08:52:05;;;;;;;16.38;4.25;;;36.30;84.90;;;;;;5088772;28;20119;-60
2021/06/23 08:54:31;;;;;;;27.20;6.32;;;37.70;84.10;;;;;;5073330;28;20054;-60
2021/06/23 08:56:57;;;;;;;15.98;3.80;;;38.60;79.70;;;;;;5073432;28;20032;-60
2021/06/23 08:59:22;;;;;;;14.40;4.65;;;39.70;78.90;;;;;;5073484;28;20027;-60
2021/06/23 09:01:50;;;;;;;15.60;4.22;;;40.80;75.30;;;;;;5073436;28;20027;-60
2021/06/23 09:04:17;;;;;;;16.98;4.07;;;41.00;73.40;;;;;;5073762;28;20021;-60
2021/06/23 09:06:55;;;;;;;10.23;3.40;;;40.60;71.40;;;;;;5073166;28;20045;-60
2021/06/23 09:09:28;;;;;;;16.45;4.25;;;41.60;69.80;;;;;;5073289;28;20060;-60
2021/06/23 09:11:58;;;;;;;21.30;4.75;;;40.70;68.10;;;;;;5073016;28;20029;-60
2021/06/23 09:14:26;;;;;;;13.40;3.92;;;41.20;67.00;;;;;;5073575;28;20035;-60
2021/06/23 09:17:07;;;;;;;9.40;3.28;;;42.60;68.10;;;;;;5072736;28;20123;-60
2021/06/23 09:19:35;;;;;;;;;;;43.50;65.50;;;;;;5088804;28;20432;-60
2021/06/23 09:22:01;;;;;;;10.05;2.78;;;42.10;64.80;;;;;;5068946;28;19904;-60
2021/06/23 09:24:39;;;;;;;12.93;3.80;;;43.60;64.30;;;;;;5088441;28;20032;-60
2021/06/23 09:27:48;;;;;;;13.15;3.53;;;42.40;63.10;;;;;;5073029;28;20086;-60
2021/06/23 09:30:37;;;;;;;16.98;3.80;;;43.90;62.30;;;;;;5050834;28;20103;-60
2021/06/23 09:33:13;;;;;;;11.30;3.60;;;41.80;63.70;;;;;;5051036;28;20041;-59
2021/06/23 09:35:44;;;;;;;19.90;3.83;;;43.80;62.60;;;;;;5051035;28;20045;-60
2021/06/23 09:38:48;;;;;;;10.25;3.60;;;44.60;59.80;;;;;;5051159;28;20029;-60
2021/06/23 09:41:35;;;;;;;14.95;3.83;;;44.40;60.10;;;;;;5050835;28;20035;-60
2021/06/23 09:44:06;;;;;;;13.10;3.08;;;45.30;58.70;;;;;;5054022;28;20033;-60
2021/06/23 09:46:35;;;;;;;14.40;4.65;;;43.90;58.60;;;;;;5021335;28;20157;-59
2021/06/23 09:49:15;;;;;;;17.58;4.03;;;43.10;59.40;;;;;;5054652;28;20036;-59
2021/06/23 09:51:52;;;;;;;15.20;3.70;;;44.50;61.00;;;;;;5054597;28;20033;-60
2021/06/23 09:54:22;;;;;;;15.25;3.78;;;43.40;59.40;;;;;;5054414;28;20107;-60
2021/06/23 09:56:49;;;;;;;15.57;3.70;;;43.90;59.50;;;;;;5054472;28;20033;-60
2021/06/23 09:59:24;;;;;;;17.08;4.15;;;44.20;58.20;;;;;;5054259;28;20112;-61
2021/06/23 10:01:50;;;;;;;12.30;3.40;;;43.40;57.70;;;;;;5037676;28;20036;-59
2021/06/23 10:04:16;;;;;;;15.23;3.50;;;44.10;58.10;;;;;;5054400;28;20392;-60
2021/06/23 10:06:45;;;;;;;15.00;3.60;;;44.40;56.20;;;;;;5055351;28;20062;-60
2021/06/23 10:09:24;;;;;;;15.15;3.50;;;45.40;57.80;;;;;;5076240;28;20113;-60
2021/06/23 10:11:51;;;;;;;11.73;3.05;;;47.40;61.10;;;;;;5076005;28;20112;-60
2021/06/23 10:14:18;;;;;;;10.70;3.22;;;48.70;54.30;;;;;;5091468;28;20058;-60
2021/06/23 10:16:46;;;;;;;15.90;3.88;;;50.20;53.60;;;;;;5091639;28;20080;-60
2021/06/23 10:19:11;;;;;;;13.52;3.65;;;49.20;53.50;;;;;;5074543;28;20033;-60
2021/06/23 10:21:39;;;;;;;13.32;3.30;;;48.60;53.60;;;;;;5091265;28;20036;-63
2021/06/23 10:24:09;;;;;;;14.55;3.70;;;49.10;52.30;;;;;;5091245;28;20548;-61
2021/06/23 10:26:45;;;;;;;14.48;3.47;;;47.80;52.70;;;;;;5074345;28;20091;-60
2021/06/23 10:29:13;;;;;;;15.23;2.88;;;49.90;51.30;;;;;;5076200;28;20421;-58
2021/06/23 10:31:41;;;;;;;10.65;2.95;;;51.10;51.50;;;;;;5075770;28;20032;-58
2021/06/23 10:34:08;;;;;;;9.07;3.20;;;49.60;50.30;;;;;;5075820;28;20374;-58
2021/06/23 10:36:34;;;;;;;19.27;3.92;;;51.70;50.60;;;;;;5075892;28;20390;-58
2021/06/23 10:39:02;;;;;;;16.52;3.65;;;47.60;50.80;;;;;;5076148;28;20060;-58
2021/06/23 10:41:28;;;;;;;20.42;4.90;;;46.10;52.10;;;;;;5075539;28;20021;-58
2021/06/23 10:44:32;;;;;;;17.10;4.45;;;46.10;52.50;;;;;;5075725;28;20034;-62
2021/06/23 10:47:03;;;;;;;17.75;4.30;;;45.00;53.30;;;;;;5075784;28;20451;-57
2021/06/23 10:49:42;;;;;;;14.60;4.18;;;44.60;52.90;;;;;;5074351;28;20067;-58
2021/06/23 10:52:20;;;;;;;24.10;5.15;;;44.60;53.20;;;;;;5090670;28;20098;-58
2021/06/23 10:55:21;;;;;;;17.15;4.30;;;45.30;53.40;;;;;;5075507;28;20125;-59
2021/06/23 10:57:49;;;;;;;20.60;4.78;;;45.90;52.90;;;;;;5020102;28;20045;-58
2021/06/23 11:00:17;;;;;;;15.98;4.72;;;48.50;52.70;;;;;;5053411;28;20174;-58
2021/06/23 11:02:49;;;;;;;21.42;4.45;;;49.80;52.10;;;;;;5053285;28;20524;-58
2021/06/23 11:05:19;;;;;;;15.57;4.28;;;51.70;51.00;;;;;;5053136;28;20036;-58
2021/06/23 11:07:50;;;;;;;15.20;3.72;;;52.90;49.90;;;;;;5052936;28;20106;-59
2021/06/23 11:10:16;;;;;;;22.73;4.97;;;53.30;49.70;;;;;;5053209;28;20032;-58
2021/06/23 11:12:51;;;;;;;21.73;4.53;;;54.70;49.40;;;;;;5052893;28;20044;-59
2021/06/23 11:15:33;;;;;;;18.23;4.07;;;56.00;47.40;;;;;;5052854;28;20128;-58
2021/06/23 11:18:19;;;;;;;15.73;4.80;;;57.50;47.20;;;;;;5052850;28;20045;-59
2021/06/23 11:21:05;;;;;;;20.25;5.68;;;56.10;46.20;;;;;;5052917;28;20029;-58
2021/06/23 11:23:51;;;;;;;19.38;4.82;;;56.20;46.70;;;;;;5052768;28;20021;-58
2021/06/23 11:26:22;;;;;;;29.83;5.55;;;55.60;46.40;;;;;;5036208;28;20037;-59
2021/06/23 11:29:09;;;;;;;17.75;4.50;;;57.70;45.70;;;;;;5052917;28;20044;-59
2021/06/23 11:31:43;;;;;;;17.40;4.78;;;58.30;45.40;;;;;;5042055;28;20037;-59
2021/06/23 11:34:09;;;;;;;19.77;3.88;;;56.20;45.40;;;;;;5059684;28;20094;-59
2021/06/23 11:36:35;;;;;;;17.13;4.03;;;54.60;45.10;;;;;;5074387;28;20029;-59
2021/06/23 11:39:02;;;;;;;19.10;4.70;;;56.40;45.20;;;;;;5074578;28;20444;-58
2021/06/23 11:41:28;;;;;;;22.77;5.35;;;56.40;45.10;;;;;;5074489;28;20107;-59
2021/06/23 11:43:54;;;;;;;18.60;5.05;;;53.90;45.50;;;;;;5074781;28;20111;-59
2021/06/23 11:46:20;;;;;;;17.17;4.65;;;52.80;46.70;;;;;;5074609;28;20569;-59
2021/06/23 11:48:46;;;;;;;20.40;4.78;;;57.00;46.80;;;;;;5039396;28;20064;-59
2021/06/23 11:51:12;;;;;;;18.38;4.35;;;56.10;45.70;;;;;;5072271;28;20113;-59
2021/06/23 11:53:39;;;;;;;16.92;4.25;;;59.00;44.60;;;;;;5072501;28;20040;-59
2021/06/23 11:56:06;;;;;;;19.23;5.38;;;58.80;44.00;;;;;;5072366;28;20124;-59
2021/06/23 11:58:32;;;;;;;19.10;4.25;;;59.80;44.20;;;;;;5072255;28;20044;-59
2021/06/23 12:00:58;;;;;;;16.17;4.20;;;59.70;43.80;;;;;;5022198;28;20114;-59
2021/06/23 12:03:24;;;;;;;19.50;4.55;;;59.00;44.10;;;;;;5055246;28;20115;-59
2021/06/23 12:05:50;;;;;;;24.15;6.03;;;60.20;44.20;;;;;;5071314;28;20053;-59
2021/06/23 12:08:16;;;;;;;17.23;4.35;;;60.10;43.50;;;;;;5038575;28;20037;-59
2021/06/23 12:10:44;;;;;;;16.10;4.30;;;60.20;44.20;;;;;;5071747;28;20040;-59
2021/06/23 12:13:11;;;;;;;21.63;5.43;;;60.30;43.70;;;;;;5069995;28;20024;-59
2021/06/23 12:15:38;;;;;;;22.38;5.20;;;57.30;42.70;;;;;;5071122;28;20141;-59
2021/06/23 12:18:06;;;;;;;21.83;5.07;;;57.20;42.70;;;;;;5071348;28;20044;-59
2021/06/23 12:20:34;;;;;;;19.77;5.00;;;56.50;43.80;;;;;;5071732;28;20457;-59
2021/06/23 12:23:04;;;;;;;16.25;4.10;;;54.90;43.40;;;;;;5068507;28;20036;-59
2021/06/23 12:25:33;;;;;;;16.33;4.10;;;54.80;43.60;;;;;;5075812;28;20043;-59
2021/06/23 12:28:02;;;;;;;23.37;5.40;;;55.30;44.00;;;;;;5068996;28;20375;-59
2021/06/23 12:30:28;;;;;;;18.98;5.55;;;56.90;43.80;;;;;;5073487;28;20195;-59
2021/06/23 12:32:58;;;;;;;23.42;4.60;;;55.30;44.20;;;;;;5073760;28;20051;-59
2021/06/23 12:35:28;;;;;;;17.25;4.50;;;57.90;44.30;;;;;;5084388;28;20081;-59
2021/06/23 12:37:54;;;;;;;24.47;5.20;;;58.40;43.70;;;;;;5073011;28;20028;-59
2021/06/23 12:40:20;;;;;;;21.60;5.28;;;58.50;43.20;;;;;;5071239;28;20277;-59
2021/06/23 12:42:46;;;;;;;21.85;5.30;;;55.40;43.00;;;;;;5073250;28;20027;-59
2021/06/23 12:45:12;;;;;;;23.42;4.63;;;58.00;43.40;;;;;;5073567;28;20028;-59
2021/06/23 12:47:38;;;;;;;17.38;5.25;;;60.00;43.30;;;;;;5038384;28;20036;-59
2021/06/23 12:50:06;;;;;;;17.60;4.35;;;60.80;42.40;;;;;;5036042;28;20033;-59
2021/06/23 12:52:33;;;;;;;15.20;4.80;;;60.60;42.60;;;;;;5029358;28;20028;-59
2021/06/23 12:54:58;;;;;;;17.63;4.72;;;61.30;42.30;;;;;;5071930;28;20102;-59
2021/06/23 12:57:25;;;;;;;17.00;5.53;;;61.30;42.90;;;;;;5071681;28;20067;-59
2021/06/23 12:59:52;;;;;;;19.58;5.72;;;59.90;42.10;;;;;;5071269;28;20028;-59
2021/06/23 13:02:18;;;;;;;18.55;5.57;;;58.80;41.80;;;;;;5071490;28;20479;-59
2021/06/23 13:04:43;;;;;;;22.00;4.25;;;56.90;42.20;;;;;;5071242;28;20028;-59
2021/06/23 13:07:09;;;;;;;20.17;5.28;;;56.90;42.90;;;;;;5070634;28;20040;-59
2021/06/23 13:09:35;;;;;;;21.58;5.20;;;58.50;43.40;;;;;;5031539;28;20043;-60
2021/06/23 13:12:01;;;;;;;19.70;5.10;;;54.50;42.90;;;;;;5035276;28;20040;-60
2021/06/23 13:14:28;;;;;;;23.30;4.45;;;54.20;43.20;;;;;;5065184;28;20047;-59
2021/06/23 13:16:54;;;;;;;21.40;5.20;;;56.30;43.50;;;;;;5061884;28;20037;-59
2021/06/23 13:19:20;;;;;;;16.60;4.40;;;57.20;42.70;;;;;;5075888;28;20046;-59
2021/06/23 13:21:47;;;;;;;21.73;4.90;;;54.80;42.80;;;;;;5071995;28;20033;-60
2021/06/23 13:24:13;;;;;;;15.70;5.03;;;54.10;42.90;;;;;;5074528;28;20138;-59
2021/06/23 13:26:39;;;;;;;17.42;4.15;;;51.40;42.90;;;;;;5086840;28;20095;-59
2021/06/23 13:29:04;;;;;;;21.90;4.40;;;51.90;44.40;;;;;;5073102;28;20032;-59
2021/06/23 13:31:30;;;;;;;20.00;5.32;;;52.50;44.10;;;;;;5069001;28;20071;-59
2021/06/23 13:33:56;;;;;;;18.33;5.35;;;54.80;43.90;;;;;;5036216;28;20033;-59
2021/06/23 13:36:22;;;;;;;19.50;4.45;;;56.60;43.70;;;;;;5087588;28;20048;-60
2021/06/23 13:38:48;;;;;;;14.57;4.22;;;55.10;42.80;;;;;;5043007;28;20047;-59
2021/06/23 13:41:13;;;;;;;18.45;4.72;;;53.00;43.30;;;;;;5073459;28;20032;-59
2021/06/23 13:43:39;;;;;;;18.30;4.65;;;54.70;43.50;;;;;;5039612;28;20056;-60
2021/06/23 13:46:05;;;;;;;16.13;6.88;;;50.80;43.60;;;;;;5072765;28;20121;-59
2021/06/23 13:48:31;;;;;;;18.60;4.43;;;50.90;44.30;;;;;;5074593;28;20479;-58
2021/06/23 13:50:57;;;;;;;20.33;4.75;;;51.70;44.00;;;;;;5074806;28;20025;-59
2021/06/23 13:53:23;;;;;;;18.77;4.32;;;52.10;44.50;;;;;;5074817;28;20596;-57
2021/06/23 13:55:49;;;;;;;24.60;5.03;;;53.00;43.70;;;;;;5074838;28;20035;-61
2021/06/23 13:58:15;;;;;;;21.08;5.95;;;51.60;43.00;;;;;;5072087;28;20475;-59
2021/06/23 14:00:44;;;;;;;18.42;5.20;;;48.70;43.80;;;;;;5074648;28;20033;-59
2021/06/23 14:03:10;;;;;;;15.35;3.88;;;50.90;44.70;;;;;;5074301;28;20048;-59
2021/06/23 14:05:37;;;;;;;17.35;5.22;;;54.50;43.80;;;;;;5074892;28;20027;-60
2021/06/23 14:08:05;;;;;;;20.42;4.20;;;52.20;42.80;;;;;;5074412;28;20052;-61
2021/06/23 14:10:32;;;;;;;13.98;4.05;;;54.30;43.50;;;;;;5075507;28;20032;-59